createdAt,value
2018-03-24T00:01:17.513Z,5.73
2018-03-24T00:03:43.549Z,5.72
2018-03-24T00:06:09.558Z,5.72
2018-03-24T00:08:35.582Z,5.72
2018-03-24T00:11:01.689Z,5.67
2018-03-24T00:13:27.719Z,5.66
2018-03-24T00:16:00.830Z,5.64
2018-03-24T00:18:26.923Z,5.61
2018-03-24T00:20:53.776Z,5.61
2018-03-24T00:23:19.862Z,5.63
2018-03-24T00:25:45.862Z,5.62
2018-03-24T00:28:11.939Z,5.62
2018-03-24T00:30:37.926Z,5.63
2018-03-24T00:33:03.962Z,5.65
2018-03-24T00:35:30.004Z,5.59
2018-03-24T00:37:56.089Z,5.54
2018-03-24T00:40:22.134Z,5.48
2018-03-24T00:42:48.174Z,5.42
2018-03-24T00:45:14.291Z,5.39
2018-03-24T00:47:40.465Z,5.36
2018-03-24T00:50:06.479Z,5.34
2018-03-24T00:52:32.509Z,5.27
2018-03-24T00:54:58.681Z,5.29
2018-03-24T00:57:25.077Z,5.32
2018-03-24T00:59:51.138Z,5.32
2018-03-24T01:02:17.309Z,5.27
2018-03-24T01:04:43.313Z,5.31
2018-03-24T01:07:09.413Z,5.27
2018-03-24T01:09:35.533Z,5.34
2018-03-24T01:12:01.560Z,5.35
2018-03-24T01:14:27.597Z,5.43
2018-03-24T01:16:53.595Z,5.38
2018-03-24T01:19:19.627Z,5.36
2018-03-24T01:21:45.648Z,5.33
2018-03-24T01:24:11.673Z,5.33
2018-03-24T01:26:37.671Z,5.34
2018-03-24T01:29:03.717Z,5.34
2018-03-24T01:31:29.711Z,5.35
2018-03-24T01:33:56.271Z,5.33
2018-03-24T01:36:22.509Z,5.32
2018-03-24T01:38:48.734Z,5.34
2018-03-24T01:41:14.758Z,5.32
2018-03-24T01:43:40.759Z,5.36
2018-03-24T01:46:07.852Z,5.34
2018-03-24T01:48:33.949Z,5.31
2018-03-24T01:50:59.977Z,5.28
2018-03-24T01:53:38.366Z,5.25
2018-03-24T01:56:04.561Z,5.28
2018-03-24T01:58:30.633Z,5.31
2018-03-24T02:00:56.699Z,5.29
2018-03-24T02:03:22.879Z,5.31
2018-03-24T02:05:48.992Z,5.32
2018-03-24T02:08:15.031Z,5.30
2018-03-24T02:10:41.098Z,5.33
2018-03-24T02:13:07.144Z,5.33
2018-03-24T02:15:33.178Z,5.32
2018-03-24T02:17:59.399Z,5.37
2018-03-24T02:20:25.465Z,5.34
2018-03-24T02:22:51.505Z,5.41
2018-03-24T02:25:17.549Z,5.37
2018-03-24T02:27:43.580Z,5.39
2018-03-24T02:30:09.667Z,5.33
2018-03-24T02:32:35.967Z,5.37
2018-03-24T02:35:01.984Z,5.36
2018-03-24T02:37:28.026Z,5.32
2018-03-24T02:39:54.073Z,5.33
2018-03-24T02:42:20.063Z,5.34
2018-03-24T02:44:46.142Z,5.36
2018-03-24T02:47:12.788Z,5.34
2018-03-24T02:49:39.131Z,5.38
2018-03-24T02:52:05.540Z,5.39
2018-03-24T02:54:31.572Z,5.40
2018-03-24T02:56:57.634Z,5.39
2018-03-24T02:59:23.664Z,5.36
2018-03-24T03:01:49.652Z,5.37
2018-03-24T03:04:15.672Z,5.38
2018-03-24T03:06:41.694Z,5.36
2018-03-24T03:09:07.798Z,5.39
2018-03-24T03:11:33.874Z,5.40
2018-03-24T03:13:59.904Z,5.43
2018-03-24T03:16:25.941Z,5.40
2018-03-24T03:18:51.927Z,5.38
2018-03-24T03:21:18.004Z,5.38
2018-03-24T03:23:44.045Z,5.35
2018-03-24T03:26:10.083Z,5.34
2018-03-24T03:28:36.977Z,5.39
2018-03-24T03:34:03.313Z,5.37
2018-03-24T03:36:29.354Z,5.37
2018-03-24T03:38:55.430Z,5.41
2018-03-24T03:41:21.458Z,5.36
2018-03-24T03:43:47.458Z,5.33
2018-03-24T03:46:13.559Z,5.31
2018-03-24T03:48:39.596Z,5.29
2018-03-24T03:51:05.635Z,5.31
2018-03-24T03:53:31.668Z,5.30
2018-03-24T03:55:57.669Z,5.28
2018-03-24T03:58:23.696Z,5.31
2018-03-24T04:00:49.724Z,5.28
2018-03-24T04:03:15.741Z,5.29
2018-03-24T04:05:41.809Z,5.32
2018-03-24T04:08:07.893Z,5.29
2018-03-24T04:10:33.911Z,5.29
2018-03-24T04:12:59.975Z,5.30
2018-03-24T04:15:26.064Z,5.34
2018-03-24T04:17:52.173Z,5.34
2018-03-24T04:20:18.210Z,5.29
2018-03-24T04:22:44.244Z,5.29
2018-03-24T04:25:10.886Z,5.31
2018-03-24T04:27:36.995Z,5.32
2018-03-24T04:30:03.822Z,5.32
2018-03-24T04:32:29.902Z,5.33
2018-03-24T04:34:55.977Z,5.32
2018-03-24T04:37:22.018Z,5.34
2018-03-24T04:39:48.168Z,5.33
2018-03-24T04:42:14.182Z,5.34
2018-03-24T04:44:40.222Z,5.35
2018-03-24T04:47:06.253Z,5.37
2018-03-24T04:49:33.025Z,5.36
2018-03-24T04:51:59.192Z,5.36
2018-03-24T04:54:25.209Z,5.37
2018-03-24T04:56:51.238Z,5.36
2018-03-24T04:59:17.557Z,5.36
2018-03-24T05:01:43.638Z,5.40
2018-03-24T05:04:09.656Z,5.37
2018-03-24T05:06:35.660Z,5.36
2018-03-24T05:09:01.693Z,5.39
2018-03-24T05:11:28.317Z,5.37
2018-03-24T05:13:54.372Z,5.36
2018-03-24T05:16:20.421Z,5.35
2018-03-24T05:18:46.728Z,5.37
2018-03-24T05:21:13.079Z,5.36
2018-03-24T05:23:39.191Z,5.35
2018-03-24T05:26:05.240Z,5.37
2018-03-24T05:28:31.236Z,5.39
2018-03-24T05:30:57.313Z,5.38
2018-03-24T05:33:23.435Z,5.35
2018-03-24T05:35:49.473Z,5.32
2018-03-24T05:38:15.467Z,5.35
2018-03-24T05:40:41.854Z,5.35
2018-03-24T05:43:07.832Z,5.33
2018-03-24T05:45:33.848Z,5.33
2018-03-24T05:47:59.873Z,5.35
2018-03-24T05:50:25.857Z,5.36
2018-03-24T05:52:52.358Z,5.41
2018-03-24T05:55:18.369Z,5.40
2018-03-24T05:57:44.521Z,5.38
2018-03-24T06:00:10.819Z,5.39
2018-03-24T06:02:36.969Z,5.43
2018-03-24T06:05:03.130Z,5.43
2018-03-24T06:07:29.169Z,5.45
2018-03-24T06:09:55.157Z,5.38
2018-03-24T06:12:21.254Z,5.42
2018-03-24T06:14:47.302Z,5.44
2018-03-24T06:17:13.470Z,5.46
2018-03-24T06:19:40.174Z,5.57
2018-03-24T06:22:06.272Z,5.55
2018-03-24T06:24:39.632Z,5.56
2018-03-24T06:27:06.769Z,5.58
2018-03-24T06:29:32.914Z,5.60
2018-03-24T06:31:58.995Z,5.66
2018-03-24T06:34:25.196Z,5.69
2018-03-24T06:36:51.265Z,5.70
2018-03-24T06:39:17.337Z,5.74
2018-03-24T06:41:43.342Z,5.80
2018-03-24T06:44:09.375Z,5.81
2018-03-24T06:46:35.384Z,5.85
2018-03-24T06:49:01.463Z,5.86
2018-03-24T06:51:27.915Z,5.90
2018-03-24T06:53:53.925Z,5.95
2018-03-24T06:56:19.949Z,5.99
2018-03-24T06:58:46.137Z,6.03
2018-03-24T07:01:12.347Z,6.13
2018-03-24T07:03:38.399Z,6.27
2018-03-24T07:06:04.514Z,6.25
2018-03-24T07:08:31.164Z,6.24
2018-03-24T07:10:57.455Z,6.29
2018-03-24T07:13:23.820Z,6.34
2018-03-24T07:15:49.901Z,6.38
2018-03-24T07:18:15.962Z,6.47
2018-03-24T07:20:41.971Z,6.51
2018-03-24T07:23:08.281Z,6.53
2018-03-24T07:25:34.591Z,6.62
2018-03-24T07:28:00.680Z,6.68
2018-03-24T07:30:26.681Z,6.70
2018-03-24T07:32:52.872Z,6.72
2018-03-24T07:35:19.026Z,6.78
2018-03-24T07:37:45.078Z,6.76
2018-03-24T07:40:11.082Z,6.79
2018-03-24T07:42:37.278Z,6.89
2018-03-24T07:45:03.391Z,6.91
2018-03-24T07:47:29.420Z,6.99
2018-03-24T07:49:55.429Z,7.05
2018-03-24T07:52:21.473Z,7.07
2018-03-24T07:54:47.566Z,7.04
2018-03-24T07:57:13.611Z,7.08
2018-03-24T07:59:45.755Z,7.02
2018-03-24T08:02:11.810Z,7.08
2018-03-24T08:04:38.475Z,7.14
2018-03-24T08:07:04.675Z,7.23
2018-03-24T08:09:30.922Z,7.19
2018-03-24T08:11:57.005Z,7.26
2018-03-24T08:14:23.115Z,7.35
2018-03-24T08:16:49.984Z,7.40
2018-03-24T08:19:16.065Z,7.44
2018-03-24T08:21:42.097Z,7.48
2018-03-24T08:24:08.136Z,7.51
2018-03-24T08:26:34.140Z,7.60
2018-03-24T08:29:00.231Z,7.65
2018-03-24T08:31:26.312Z,7.69
2018-03-24T08:33:52.459Z,7.75
2018-03-24T08:36:18.468Z,7.78
2018-03-24T08:38:44.605Z,8.03
2018-03-24T08:41:10.702Z,8.11
2018-03-24T08:43:36.714Z,8.34
2018-03-24T08:46:03.342Z,8.44
2018-03-24T08:48:29.361Z,8.53
2018-03-24T08:50:55.430Z,8.58
2018-03-24T08:53:21.473Z,8.66
2018-03-24T08:55:47.474Z,8.84
2018-03-24T08:58:13.551Z,8.88
2018-03-24T09:00:40.002Z,9.02
2018-03-24T09:03:06.544Z,8.98
2018-03-24T09:05:32.700Z,9.22
2018-03-24T09:07:59.107Z,9.37
2018-03-24T09:10:25.128Z,9.51
2018-03-24T09:12:51.167Z,9.56
2018-03-24T09:15:17.262Z,9.62
2018-03-24T09:17:43.302Z,9.51
2018-03-24T09:20:09.719Z,9.26
2018-03-24T09:22:35.960Z,9.61
2018-03-24T09:25:02.059Z,9.55
2018-03-24T09:27:28.110Z,9.66
2018-03-24T09:29:54.183Z,9.74
2018-03-24T09:32:20.261Z,9.59
2018-03-24T09:34:46.477Z,9.87
2018-03-24T09:37:12.668Z,9.88
2018-03-24T09:39:38.698Z,9.94
2018-03-24T09:42:05.294Z,10.01
2018-03-24T09:44:31.304Z,10.23
2018-03-24T09:46:57.358Z,10.19
2018-03-24T09:49:23.792Z,10.26
2018-03-24T09:51:49.866Z,10.76
2018-03-24T09:54:16.014Z,11.24
2018-03-24T09:56:42.013Z,11.63
2018-03-24T09:59:08.642Z,11.34
2018-03-24T10:01:34.731Z,11.99
2018-03-24T10:04:01.399Z,12.22
2018-03-24T10:06:27.486Z,12.28
2018-03-24T10:08:53.524Z,12.62
2018-03-24T10:11:19.630Z,12.45
2018-03-24T10:13:45.696Z,12.61
2018-03-24T10:16:11.687Z,12.86
2018-03-24T10:18:37.731Z,13.23
2018-03-24T10:24:25.660Z,13.11
2018-03-24T10:26:51.920Z,13.09
2018-03-24T10:29:18.050Z,13.35
2018-03-24T10:31:44.037Z,13.31
2018-03-24T10:34:10.106Z,13.21
2018-03-24T10:36:36.135Z,13.37
2018-03-24T10:39:02.190Z,13.77
2018-03-24T10:41:28.278Z,14.50
2018-03-24T10:43:54.292Z,14.43
2018-03-24T10:46:20.310Z,13.72
2018-03-24T10:48:46.350Z,14.03
2018-03-24T10:51:12.382Z,14.64
2018-03-24T10:53:38.511Z,16.25
2018-03-24T10:56:04.686Z,16.63
2018-03-24T10:58:30.728Z,17.17
2018-03-24T11:01:02.855Z,17.75
2018-03-24T11:03:29.014Z,18.15
2018-03-24T11:05:55.208Z,17.80
2018-03-24T11:08:21.352Z,18.22
2018-03-24T11:10:47.391Z,18.58
2018-03-24T11:13:13.459Z,19.82
2018-03-24T11:15:39.461Z,19.25
2018-03-24T11:18:05.556Z,18.24
2018-03-24T11:20:31.611Z,17.87
2018-03-24T11:22:57.675Z,18.13
2018-03-24T11:25:23.726Z,19.24
2018-03-24T11:27:49.791Z,19.35
2018-03-24T11:30:15.903Z,19.58
2018-03-24T11:32:41.952Z,20.41
2018-03-24T11:35:08.086Z,19.54
2018-03-24T11:37:34.121Z,18.23
2018-03-24T11:40:00.188Z,17.46
2018-03-24T11:42:26.204Z,16.59
2018-03-24T11:44:52.336Z,16.39
2018-03-24T11:47:18.357Z,16.10
2018-03-24T11:49:45.241Z,15.71
2018-03-24T11:52:11.257Z,15.36
2018-03-24T11:54:44.070Z,14.68
2018-03-24T11:57:10.181Z,15.12
2018-03-24T11:59:36.748Z,15.72
2018-03-24T12:02:03.014Z,15.85
2018-03-24T12:04:29.187Z,16.11
2018-03-24T12:06:55.362Z,15.72
2018-03-24T12:09:21.418Z,15.94
2018-03-24T12:11:47.454Z,16.10
2018-03-24T12:14:13.577Z,15.85
2018-03-24T12:16:39.602Z,16.08
2018-03-24T12:19:05.624Z,15.96
2018-03-24T12:21:31.738Z,16.32
2018-03-24T12:23:57.751Z,15.56
2018-03-24T12:26:23.786Z,16.12
2018-03-24T12:28:50.003Z,15.52
2018-03-24T12:31:16.127Z,16.73
2018-03-24T12:33:42.150Z,17.56
2018-03-24T12:36:08.167Z,18.20
2018-03-24T12:38:34.260Z,19.22
2018-03-24T12:41:00.270Z,18.15
2018-03-24T12:43:26.289Z,20.03
2018-03-24T12:45:52.328Z,20.17
2018-03-24T12:48:18.419Z,21.56
2018-03-24T12:50:44.609Z,20.74
2018-03-24T12:53:10.857Z,20.32
2018-03-24T12:55:36.964Z,19.04
2018-03-24T12:58:03.011Z,18.75
2018-03-24T13:00:29.251Z,18.31
2018-03-24T13:02:55.470Z,17.91
2018-03-24T13:05:21.591Z,18.11
2018-03-24T13:07:47.734Z,17.62
2018-03-24T13:10:13.823Z,17.48
2018-03-24T13:12:39.846Z,17.60
2018-03-24T13:15:05.902Z,17.64
2018-03-24T13:17:31.926Z,17.73
2018-03-24T13:19:58.003Z,18.09
2018-03-24T13:22:24.097Z,18.83
2018-03-24T13:24:50.902Z,22.52
2018-03-24T13:27:17.380Z,22.84
2018-03-24T13:29:43.494Z,21.33
2018-03-24T13:32:10.957Z,26.10
2018-03-24T13:34:37.104Z,24.59
2018-03-24T13:37:03.357Z,28.42
2018-03-24T13:39:29.412Z,29.97
2018-03-24T13:41:55.446Z,25.68
2018-03-24T13:44:21.522Z,28.61
2018-03-24T13:46:47.580Z,30.69
2018-03-24T13:49:13.619Z,31.14
2018-03-24T13:51:39.655Z,28.19
2018-03-24T13:54:05.736Z,26.69
2018-03-24T13:56:31.783Z,27.50
2018-03-24T13:58:57.803Z,30.76
2018-03-24T14:01:23.834Z,33.66
2018-03-24T14:03:49.847Z,33.97
2018-03-24T14:06:16.141Z,35.76
2018-03-24T14:08:42.291Z,31.99
2018-03-24T14:11:08.386Z,27.41
2018-03-24T14:13:34.451Z,25.82
2018-03-24T14:16:00.631Z,24.05
2018-03-24T14:18:26.699Z,23.73
2018-03-24T14:20:52.852Z,22.44
2018-03-24T14:23:19.444Z,21.58
2018-03-24T14:25:45.866Z,20.80
2018-03-24T14:28:11.962Z,19.80
2018-03-24T14:30:38.004Z,19.40
2018-03-24T14:33:04.032Z,18.49
2018-03-24T14:35:30.081Z,18.36
2018-03-24T14:37:56.178Z,18.08
2018-03-24T14:40:22.216Z,17.23
2018-03-24T14:42:48.264Z,16.66
2018-03-24T14:45:14.270Z,16.08
2018-03-24T14:47:40.306Z,16.13
2018-03-24T14:50:06.797Z,15.96
2018-03-24T14:52:32.989Z,15.71
2018-03-24T14:54:59.191Z,15.07
2018-03-24T14:57:25.335Z,14.93
2018-03-24T14:59:51.473Z,14.86
2018-03-24T15:02:17.498Z,14.69
2018-03-24T15:04:43.583Z,14.61
2018-03-24T15:07:09.732Z,14.45
2018-03-24T15:09:35.793Z,14.38
2018-03-24T15:12:01.917Z,14.43
2018-03-24T15:14:27.905Z,14.57
2018-03-24T15:16:54.039Z,13.95
2018-03-24T15:19:20.115Z,13.86
2018-03-24T15:21:46.428Z,13.77
2018-03-24T15:24:12.527Z,13.72
2018-03-24T15:26:38.750Z,13.64
2018-03-24T15:29:16.914Z,13.55
2018-03-24T15:31:55.329Z,13.33
2018-03-24T15:34:33.681Z,12.98
2018-03-24T15:36:59.744Z,13.10
2018-03-24T15:39:25.777Z,13.30
2018-03-24T15:41:51.836Z,13.36
2018-03-24T15:44:17.886Z,13.53
2018-03-24T15:46:43.934Z,13.17
2018-03-24T15:49:09.995Z,12.89
2018-03-24T15:51:36.033Z,13.04
2018-03-24T15:54:02.417Z,12.94
2018-03-24T15:56:28.454Z,13.30
2018-03-24T15:59:01.554Z,13.56
2018-03-24T16:01:27.583Z,16.43
2018-03-24T16:03:53.610Z,18.33
2018-03-24T16:06:19.769Z,18.72
2018-03-24T16:08:45.765Z,17.85
2018-03-24T16:11:12.407Z,18.77
2018-03-24T16:13:38.498Z,16.95
2018-03-24T16:16:04.652Z,15.86
2018-03-24T16:18:30.852Z,15.53
2018-03-24T16:20:57.123Z,15.09
2018-03-24T16:23:23.143Z,14.97
2018-03-24T16:25:49.177Z,14.19
2018-03-24T16:28:16.238Z,13.71
2018-03-24T16:30:42.294Z,13.44
2018-03-24T16:33:08.732Z,12.78
2018-03-24T16:35:34.990Z,12.74
2018-03-24T16:38:01.167Z,12.48
2018-03-24T16:40:27.200Z,12.31
2018-03-24T16:42:53.642Z,12.16
2018-03-24T16:45:20.320Z,11.88
2018-03-24T16:47:46.371Z,11.35
2018-03-24T16:50:12.583Z,11.31
2018-03-24T16:52:38.601Z,11.13
2018-03-24T16:55:04.641Z,11.11
2018-03-24T16:57:30.713Z,10.82
2018-03-24T16:59:57.057Z,10.86
2018-03-24T17:02:23.224Z,10.91
2018-03-24T17:04:49.326Z,10.78
2018-03-24T17:07:15.447Z,10.52
2018-03-24T17:09:41.671Z,10.39
2018-03-24T17:12:07.970Z,10.08
2018-03-24T17:14:34.792Z,10.07
2018-03-24T17:17:01.059Z,9.88
2018-03-24T17:19:27.352Z,9.69
2018-03-24T17:21:53.514Z,9.64
2018-03-24T17:24:19.562Z,9.42
2018-03-24T17:26:45.694Z,9.35
2018-03-24T17:29:11.974Z,9.22
2018-03-24T17:31:38.822Z,9.05
2018-03-24T17:34:05.125Z,8.95
2018-03-24T17:36:31.441Z,8.80
2018-03-24T17:39:04.583Z,8.69
2018-03-24T17:41:30.664Z,8.49
2018-03-24T17:43:56.983Z,8.27
2018-03-24T17:46:23.199Z,8.17
2018-03-24T17:48:49.353Z,8.11
2018-03-24T17:51:15.477Z,8.03
2018-03-24T17:53:41.589Z,8.01
2018-03-24T17:56:14.585Z,7.87
2018-03-24T17:58:40.804Z,7.70
2018-03-24T18:01:07.030Z,7.68
2018-03-24T18:03:33.316Z,7.56
2018-03-24T18:05:59.486Z,7.56
2018-03-24T18:08:25.535Z,7.42
2018-03-24T18:10:51.753Z,7.28
2018-03-24T18:13:17.884Z,7.22
2018-03-24T18:15:44.012Z,7.18
2018-03-24T18:18:10.272Z,7.02
2018-03-24T18:20:36.409Z,6.92
2018-03-24T18:23:02.550Z,6.88
2018-03-24T18:25:28.927Z,6.83
2018-03-24T18:27:55.174Z,6.81
2018-03-24T18:30:21.358Z,6.75
2018-03-24T18:32:47.597Z,6.66
2018-03-24T18:35:13.798Z,6.51
2018-03-24T18:37:40.052Z,6.52
2018-03-24T18:40:06.284Z,6.47
2018-03-24T18:42:32.509Z,6.40
2018-03-24T18:44:58.649Z,6.35
2018-03-24T18:47:24.794Z,6.36
2018-03-24T18:49:50.969Z,6.26
2018-03-24T18:52:17.075Z,6.24
2018-03-24T18:54:43.261Z,6.19
2018-03-24T18:57:09.419Z,6.16
2018-03-24T18:59:35.589Z,6.09
2018-03-24T19:02:01.829Z,6.03
2018-03-24T19:04:28.553Z,5.99
2018-03-24T19:06:54.684Z,5.86
2018-03-24T19:09:20.846Z,5.86
2018-03-24T19:11:46.932Z,5.81
2018-03-24T19:14:13.370Z,5.76
2018-03-24T19:16:39.563Z,5.74
2018-03-24T19:19:05.640Z,5.73
2018-03-24T19:21:31.713Z,5.70
2018-03-24T19:23:57.767Z,5.70
2018-03-24T19:26:23.846Z,5.77
2018-03-24T19:28:50.068Z,5.69
2018-03-24T19:31:16.239Z,5.66
2018-03-24T19:33:42.498Z,5.57
2018-03-24T19:36:08.655Z,5.48
2018-03-24T19:38:34.883Z,5.42
2018-03-24T19:41:01.086Z,5.38
2018-03-24T19:43:27.259Z,5.40
2018-03-24T19:45:53.419Z,5.33
2018-03-24T19:48:19.557Z,5.31
2018-03-24T19:50:45.823Z,5.31
2018-03-24T19:53:11.970Z,5.23
2018-03-24T19:55:38.089Z,5.20
2018-03-24T19:58:04.220Z,5.15
2018-03-24T20:00:30.427Z,5.12
2018-03-24T20:02:56.665Z,5.06
2018-03-24T20:05:23.133Z,5.20
2018-03-24T20:07:49.378Z,5.12
2018-03-24T20:10:15.550Z,5.08
2018-03-24T20:12:41.745Z,5.04
2018-03-24T20:15:07.937Z,5.06
2018-03-24T20:17:34.149Z,5.00
2018-03-24T20:20:00.326Z,5.07
2018-03-24T20:22:26.546Z,4.99
2018-03-24T20:24:53.052Z,4.92
2018-03-24T20:27:19.323Z,4.92
2018-03-24T20:29:45.573Z,4.86
2018-03-24T20:32:11.778Z,4.80
2018-03-24T20:34:38.010Z,4.81
2018-03-24T20:37:04.239Z,4.81
2018-03-24T20:39:31.326Z,4.77
2018-03-24T20:41:57.588Z,4.81
2018-03-24T20:44:24.832Z,4.85
2018-03-24T20:46:51.302Z,4.78
2018-03-24T20:49:17.901Z,4.73
2018-03-24T20:51:44.266Z,4.74
2018-03-24T20:54:10.637Z,4.76
2018-03-24T20:56:37.174Z,4.72
2018-03-24T20:59:03.537Z,4.73
2018-03-24T21:01:29.593Z,4.71
2018-03-24T21:03:55.763Z,4.74
2018-03-24T21:06:21.906Z,4.71
2018-03-24T21:08:48.017Z,4.65
2018-03-24T21:11:14.164Z,4.68
2018-03-24T21:13:40.239Z,4.60
2018-03-24T21:16:06.473Z,4.61
2018-03-24T21:18:32.762Z,4.52
2018-03-24T21:20:58.901Z,4.52
2018-03-24T21:23:25.089Z,4.51
2018-03-24T21:25:51.314Z,4.50
2018-03-24T21:28:17.557Z,4.44
2018-03-24T21:30:43.681Z,4.40
2018-03-24T21:33:09.801Z,4.40
2018-03-24T21:35:35.958Z,4.34
2018-03-24T21:38:02.094Z,4.39
2018-03-24T21:40:28.253Z,4.33
2018-03-24T21:42:54.322Z,4.29
2018-03-24T21:45:20.422Z,4.32
2018-03-24T21:47:46.540Z,4.30
2018-03-24T21:50:12.600Z,4.30
2018-03-24T21:52:38.656Z,4.25
2018-03-24T21:55:04.758Z,4.22
2018-03-24T21:57:37.913Z,4.20
2018-03-24T22:00:03.991Z,4.18
2018-03-24T22:02:30.030Z,4.18
2018-03-24T22:04:56.148Z,4.17
2018-03-24T22:07:22.193Z,4.08
2018-03-24T22:09:48.227Z,4.10
2018-03-24T22:12:14.242Z,4.10
2018-03-24T22:14:40.275Z,4.07
2018-03-24T22:17:06.950Z,4.05
2018-03-24T22:19:33.179Z,4.06
2018-03-24T22:21:59.270Z,3.99
2018-03-24T22:24:25.326Z,4.03
2018-03-24T22:26:51.485Z,3.94
2018-03-24T22:29:17.648Z,3.95
2018-03-24T22:31:43.696Z,4.01
2018-03-24T22:34:09.774Z,4.01
2018-03-24T22:36:35.828Z,3.95
2018-03-24T22:39:01.958Z,3.96
2018-03-24T22:41:28.019Z,4.02
2018-03-24T22:43:54.056Z,4.00
2018-03-24T22:46:20.190Z,3.95
2018-03-24T22:48:46.211Z,3.94
2018-03-24T22:51:12.266Z,3.98
2018-03-24T22:53:38.321Z,3.95
2018-03-24T22:56:04.357Z,3.93
2018-03-24T22:58:30.400Z,3.97
2018-03-24T23:00:56.470Z,3.93
2018-03-24T23:03:22.514Z,3.91
2018-03-24T23:05:48.594Z,3.89
2018-03-24T23:08:14.601Z,3.90
2018-03-24T23:10:40.636Z,3.87
2018-03-24T23:13:07.123Z,3.86
2018-03-24T23:15:33.300Z,3.82
2018-03-24T23:17:59.384Z,3.77
2018-03-24T23:20:25.518Z,3.67
2018-03-24T23:22:51.570Z,3.63
2018-03-24T23:25:17.778Z,3.61
2018-03-24T23:27:43.917Z,3.63
2018-03-24T23:30:09.941Z,3.60
2018-03-24T23:32:35.955Z,3.69
2018-03-24T23:35:01.966Z,3.63
2018-03-24T23:37:28.069Z,3.58
2018-03-24T23:39:54.295Z,3.54
2018-03-24T23:42:20.380Z,3.52
2018-03-24T23:44:46.570Z,3.47
2018-03-24T23:47:12.886Z,3.43
2018-03-24T23:49:38.917Z,3.42
2018-03-24T23:52:05.077Z,3.38
2018-03-24T23:54:31.229Z,3.34
2018-03-24T23:56:57.363Z,3.28
2018-03-24T23:59:23.467Z,3.21
